sensor_id;sensor_type;location;lat;lon;timestamp;temperature;humidity
3980;DHT22;2004;52.452;13.120;2024-01-10T00:03:25;-7.30;99.90
3980;DHT22;2004;52.452;13.120;2024-01-10T00:11:16;-7.40;99.90
3980;DHT22;2004;52.452;13.120;2024-01-10T00:19:06;-7.40;99.90
3980;DHT22;2004;52.452;13.120;2024-01-10T00:26:57;-7.40;99.90
3980;DHT22;2004;52.452;13.120;2024-01-10T00:34:48;-7.40;99.90
3980;DHT22;2004;52.452;13.120;2024-01-10T00:42:38;-7.40;99.90
3980;DHT22;2004;52.452;13.120;2024-01-10T00:50:29;-7.40;99.90
3980;DHT22;2004;52.452;13.120;2024-01-10T00:58:19;-7.40;99.90
3980;DHT22;2004;52.452;13.120;2024-01-10T01:06:10;-7.40;99.90
3980;DHT22;2004;52.452;13.120;2024-01-10T01:14:02;-7.50;99.90
3980;DHT22;2004;52.452;13.120;2024-01-10T01:21:53;-7.50;99.90
3980;DHT22;2004;52.452;13.120;2024-01-10T01:29:44;-7.50;99.90
3980;DHT22;2004;52.452;13.120;2024-01-10T01:37:35;-7.60;99.90
3980;DHT22;2004;52.452;13.120;2024-01-10T01:45:25;-7.60;99.90
3980;DHT22;2004;52.452;13.120;2024-01-10T01:53:16;-7.60;99.90
3980;DHT22;2004;52.452;13.120;2024-01-10T02:01:08;-7.60;99.90
3980;DHT22;2004;52.452;13.120;2024-01-10T02:08:59;-7.70;99.90
3980;DHT22;2004;52.452;13.120;2024-01-10T02:16:50;-7.70;99.90
3980;DHT22;2004;52.452;13.120;2024-01-10T02:24:41;-7.70;99.90
3980;DHT22;2004;52.452;13.120;2024-01-10T02:32:31;-7.70;99.90
3980;DHT22;2004;52.452;13.120;2024-01-10T02:40:22;-7.70;99.90
3980;DHT22;2004;52.452;13.120;2024-01-10T02:48:12;-7.70;99.90
3980;DHT22;2004;52.452;13.120;2024-01-10T02:56:03;-7.70;99.90
3980;DHT22;2004;52.452;13.120;2024-01-10T03:03:54;-7.70;99.90
3980;DHT22;2004;52.452;13.120;2024-01-10T03:11:44;-7.80;99.90
3980;DHT22;2004;52.452;13.120;2024-01-10T03:19:36;-7.80;99.90
3980;DHT22;2004;52.452;13.120;2024-01-10T03:27:32;-7.90;99.90
3980;DHT22;2004;52.452;13.120;2024-01-10T03:35:23;-7.90;99.90
3980;DHT22;2004;52.452;13.120;2024-01-10T03:43:13;-7.90;99.90
3980;DHT22;2004;52.452;13.120;2024-01-10T03:51:04;-7.90;99.90
3980;DHT22;2004;52.452;13.120;2024-01-10T03:58:55;-7.90;99.90
3980;DHT22;2004;52.452;13.120;2024-01-10T04:06:45;-7.90;99.90
3980;DHT22;2004;52.452;13.120;2024-01-10T04:14:36;-7.90;99.90
3980;DHT22;2004;52.452;13.120;2024-01-10T04:22:27;-7.90;99.90
3980;DHT22;2004;52.452;13.120;2024-01-10T04:30:17;-7.90;99.90
3980;DHT22;2004;52.452;13.120;2024-01-10T04:38:08;-8.00;99.90
3980;DHT22;2004;52.452;13.120;2024-01-10T04:45:59;-8.00;99.90
3980;DHT22;2004;52.452;13.120;2024-01-10T04:53:49;-8.00;99.90
3980;DHT22;2004;52.452;13.120;2024-01-10T05:01:40;-8.10;99.90
3980;DHT22;2004;52.452;13.120;2024-01-10T05:09:31;-8.10;99.90
3980;DHT22;2004;52.452;13.120;2024-01-10T05:17:21;-8.20;99.90
3980;DHT22;2004;52.452;13.120;2024-01-10T05:25:12;-8.20;99.90
3980;DHT22;2004;52.452;13.120;2024-01-10T05:33:03;-8.30;99.90
3980;DHT22;2004;52.452;13.120;2024-01-10T05:40:53;-8.40;99.90
3980;DHT22;2004;52.452;13.120;2024-01-10T05:48:44;-8.40;99.90
3980;DHT22;2004;52.452;13.120;2024-01-10T05:56:34;-8.50;99.90
3980;DHT22;2004;52.452;13.120;2024-01-10T06:04:25;-8.50;99.90
3980;DHT22;2004;52.452;13.120;2024-01-10T06:12:16;-8.50;99.90
3980;DHT22;2004;52.452;13.120;2024-01-10T06:20:08;-8.50;99.90
3980;DHT22;2004;52.452;13.120;2024-01-10T06:27:59;-8.40;99.90
3980;DHT22;2004;52.452;13.120;2024-01-10T06:35:50;-8.40;99.90
3980;DHT22;2004;52.452;13.120;2024-01-10T06:43:40;-8.40;99.90
3980;DHT22;2004;52.452;13.120;2024-01-10T06:51:31;-8.50;99.90
3980;DHT22;2004;52.452;13.120;2024-01-10T06:59:22;-8.50;99.90
3980;DHT22;2004;52.452;13.120;2024-01-10T07:07:14;-8.50;99.90
3980;DHT22;2004;52.452;13.120;2024-01-10T07:15:05;-8.50;99.90
3980;DHT22;2004;52.452;13.120;2024-01-10T07:22:56;-8.50;99.90
3980;DHT22;2004;52.452;13.120;2024-01-10T07:30:47;-8.50;99.90
3980;DHT22;2004;52.452;13.120;2024-01-10T07:38:38;-8.40;99.90
3980;DHT22;2004;52.452;13.120;2024-01-10T07:46:28;-8.40;99.90
3980;DHT22;2004;52.452;13.120;2024-01-10T07:54:19;-8.30;99.90
3980;DHT22;2004;52.452;13.120;2024-01-10T08:02:10;-8.30;99.90
3980;DHT22;2004;52.452;13.120;2024-01-10T08:10:04;-8.30;99.90
3980;DHT22;2004;52.452;13.120;2024-01-10T08:17:54;-8.20;99.90
3980;DHT22;2004;52.452;13.120;2024-01-10T08:25:45;-8.10;99.90
3980;DHT22;2004;52.452;13.120;2024-01-10T08:33:36;-8.00;99.90
3980;DHT22;2004;52.452;13.120;2024-01-10T08:41:26;-7.80;99.90
3980;DHT22;2004;52.452;13.120;2024-01-10T08:49:18;-7.60;99.90
3980;DHT22;2004;52.452;13.120;2024-01-10T08:57:08;-7.50;99.90
3980;DHT22;2004;52.452;13.120;2024-01-10T09:04:59;-7.30;99.90
3980;DHT22;2004;52.452;13.120;2024-01-10T09:12:49;-7.10;99.90
3980;DHT22;2004;52.452;13.120;2024-01-10T09:20:40;-6.80;99.90
3980;DHT22;2004;52.452;13.120;2024-01-10T09:28:31;-6.50;99.90
3980;DHT22;2004;52.452;13.120;2024-01-10T09:36:21;-6.30;99.90
3980;DHT22;2004;52.452;13.120;2024-01-10T09:44:12;-6.00;99.90
3980;DHT22;2004;52.452;13.120;2024-01-10T09:52:04;-5.80;99.90
3980;DHT22;2004;52.452;13.120;2024-01-10T09:59:55;-5.70;99.90
3980;DHT22;2004;52.452;13.120;2024-01-10T10:07:47;-5.50;99.90
3980;DHT22;2004;52.452;13.120;2024-01-10T10:15:38;-5.40;99.90
3980;DHT22;2004;52.452;13.120;2024-01-10T10:23:28;-5.20;99.90
3980;DHT22;2004;52.452;13.120;2024-01-10T10:31:19;-5.00;99.90
3980;DHT22;2004;52.452;13.120;2024-01-10T10:39:16;-4.80;99.90
3980;DHT22;2004;52.452;13.120;2024-01-10T10:47:10;-4.60;99.90
3980;DHT22;2004;52.452;13.120;2024-01-10T10:55:02;-4.30;99.90
3980;DHT22;2004;52.452;13.120;2024-01-10T11:02:54;-4.20;99.90
3980;DHT22;2004;52.452;13.120;2024-01-10T11:10:46;-4.10;99.90
3980;DHT22;2004;52.452;13.120;2024-01-10T11:27:12;-3.80;99.90
3980;DHT22;2004;52.452;13.120;2024-01-10T11:35:21;-3.60;99.90
3980;DHT22;2004;52.452;13.120;2024-01-10T11:43:14;-3.40;99.60
3980;DHT22;2004;52.452;13.120;2024-01-10T11:51:07;-3.10;98.60
3980;DHT22;2004;52.452;13.120;2024-01-10T11:59:02;-3.00;96.90
3980;DHT22;2004;52.452;13.120;2024-01-10T12:16:38;-2.60;94.70
3980;DHT22;2004;52.452;13.120;2024-01-10T12:25:06;-2.40;90.50
3980;DHT22;2004;52.452;13.120;2024-01-10T12:42:12;-2.30;91.50
3980;DHT22;2004;52.452;13.120;2024-01-10T12:50:31;-2.30;89.80
3980;DHT22;2004;52.452;13.120;2024-01-10T12:58:30;-2.20;84.20
3980;DHT22;2004;52.452;13.120;2024-01-10T13:06:34;-2.10;84.70
3980;DHT22;2004;52.452;13.120;2024-01-10T13:31:25;-2.10;89.60
3980;DHT22;2004;52.452;13.120;2024-01-10T13:39:19;-2.00;87.50
3980;DHT22;2004;52.452;13.120;2024-01-10T13:47:11;-1.90;88.20
3980;DHT22;2004;52.452;13.120;2024-01-10T13:55:20;-1.90;85.20
3980;DHT22;2004;52.452;13.120;2024-01-10T14:04:39;-1.80;83.20
3980;DHT22;2004;52.452;13.120;2024-01-10T14:12:45;-1.60;77.80
3980;DHT22;2004;52.452;13.120;2024-01-10T14:20:39;-1.40;72.20
3980;DHT22;2004;52.452;13.120;2024-01-10T14:28:30;-1.40;79.30
3980;DHT22;2004;52.452;13.120;2024-01-10T14:37:11;-1.40;86.00
3980;DHT22;2004;52.452;13.120;2024-01-10T14:45:05;-1.50;88.50
3980;DHT22;2004;52.452;13.120;2024-01-10T14:53:24;-1.50;89.60
3980;DHT22;2004;52.452;13.120;2024-01-10T15:02:22;-1.60;90.20
3980;DHT22;2004;52.452;13.120;2024-01-10T15:10:52;-1.60;90.70
3980;DHT22;2004;52.452;13.120;2024-01-10T15:19:07;-1.70;91.30
3980;DHT22;2004;52.452;13.120;2024-01-10T15:27:00;-1.80;91.90
3980;DHT22;2004;52.452;13.120;2024-01-10T15:34:59;-1.80;92.30
3980;DHT22;2004;52.452;13.120;2024-01-10T15:43:06;-1.90;92.90
3980;DHT22;2004;52.452;13.120;2024-01-10T15:51:16;-2.00;94.10
3980;DHT22;2004;52.452;13.120;2024-01-10T15:59:31;-2.10;94.80
3980;DHT22;2004;52.452;13.120;2024-01-10T16:07:40;-2.20;95.60
3980;DHT22;2004;52.452;13.120;2024-01-10T16:24:59;-2.40;96.60
3980;DHT22;2004;52.452;13.120;2024-01-10T16:33:26;-2.60;96.40
3980;DHT22;2004;52.452;13.120;2024-01-10T16:41:54;-2.70;96.90
3980;DHT22;2004;52.452;13.120;2024-01-10T16:50:57;-2.80;97.30
3980;DHT22;2004;52.452;13.120;2024-01-10T17:26:05;-3.40;98.70
3980;DHT22;2004;52.452;13.120;2024-01-10T17:43:37;-3.60;99.60
3980;DHT22;2004;52.452;13.120;2024-01-10T18:10:12;-4.00;99.90
3980;DHT22;2004;52.452;13.120;2024-01-10T18:18:56;-4.10;99.90
3980;DHT22;2004;52.452;13.120;2024-01-10T18:27:51;-4.30;99.90
3980;DHT22;2004;52.452;13.120;2024-01-10T18:36:12;-4.30;99.90
3980;DHT22;2004;52.452;13.120;2024-01-10T18:44:22;-4.50;99.90
3980;DHT22;2004;52.452;13.120;2024-01-10T19:00:58;-4.60;99.90
3980;DHT22;2004;52.452;13.120;2024-01-10T19:09:07;-4.70;99.90
3980;DHT22;2004;52.452;13.120;2024-01-10T19:17:27;-4.80;99.90
3980;DHT22;2004;52.452;13.120;2024-01-10T19:25:41;-4.90;99.90
3980;DHT22;2004;52.452;13.120;2024-01-10T19:33:37;-4.90;99.90
3980;DHT22;2004;52.452;13.120;2024-01-10T19:41:43;-5.00;99.90
3980;DHT22;2004;52.452;13.120;2024-01-10T19:49:40;-5.00;99.90
3980;DHT22;2004;52.452;13.120;2024-01-10T19:57:37;-5.10;99.90
3980;DHT22;2004;52.452;13.120;2024-01-10T20:05:35;-5.20;99.90
3980;DHT22;2004;52.452;13.120;2024-01-10T20:13:48;-5.40;99.90
3980;DHT22;2004;52.452;13.120;2024-01-10T20:21:56;-5.40;99.90
3980;DHT22;2004;52.452;13.120;2024-01-10T20:30:02;-5.50;99.90
3980;DHT22;2004;52.452;13.120;2024-01-10T20:38:05;-5.60;99.90
3980;DHT22;2004;52.452;13.120;2024-01-10T20:46:17;-5.60;99.90
3980;DHT22;2004;52.452;13.120;2024-01-10T20:54:26;-5.60;99.90
3980;DHT22;2004;52.452;13.120;2024-01-10T21:02:20;-5.70;99.90
3980;DHT22;2004;52.452;13.120;2024-01-10T21:10:19;-5.80;99.90
3980;DHT22;2004;52.452;13.120;2024-01-10T21:27:22;-5.90;99.90
3980;DHT22;2004;52.452;13.120;2024-01-10T21:35:34;-6.00;99.90
3980;DHT22;2004;52.452;13.120;2024-01-10T21:43:38;-6.10;99.90
3980;DHT22;2004;52.452;13.120;2024-01-10T21:51:35;-6.20;99.90
3980;DHT22;2004;52.452;13.120;2024-01-10T21:59:34;-6.30;99.90
3980;DHT22;2004;52.452;13.120;2024-01-10T22:15:37;-6.40;99.90
3980;DHT22;2004;52.452;13.120;2024-01-10T22:23:42;-6.50;99.90
3980;DHT22;2004;52.452;13.120;2024-01-10T22:31:46;-6.50;99.90
3980;DHT22;2004;52.452;13.120;2024-01-10T22:39:43;-6.50;99.90
3980;DHT22;2004;52.452;13.120;2024-01-10T22:48:00;-6.60;99.90
3980;DHT22;2004;52.452;13.120;2024-01-10T22:56:05;-6.70;99.90
3980;DHT22;2004;52.452;13.120;2024-01-10T23:03:59;-6.70;99.90
3980;DHT22;2004;52.452;13.120;2024-01-10T23:11:54;-6.80;99.90
3980;DHT22;2004;52.452;13.120;2024-01-10T23:19:46;-6.80;99.90
3980;DHT22;2004;52.452;13.120;2024-01-10T23:27:37;-6.80;99.90
3980;DHT22;2004;52.452;13.120;2024-01-10T23:35:28;-6.90;99.90
3980;DHT22;2004;52.452;13.120;2024-01-10T23:43:27;-7.00;99.90
3980;DHT22;2004;52.452;13.120;2024-01-10T23:51:18;-7.00;99.90
3980;DHT22;2004;52.452;13.120;2024-01-10T23:59:14;-7.00;99.90
